Lähialueen lentokenttien sää

 

EFLP - Lappeenranta, Finland
Distance from station: I 35km
Päivitetty: 20/09/2018 22:50
Selkeätä
Selkeätä
 Tuulen suunta ELO
Tuuli: ELO 15 km/h
Lämpötila: 14°C
Kastepiste: 10°C
Kosteus: 77%
Ilmanpaine: 1007 hPa
Yhteenveto: Selkeätä
Visibility: greater than 10 km
2018/09/20 19:50 EFLP 201950Z AUTO 21008KT 170V260 CAVOK 14/10 Q1007
EFUT - Utti (fin-Afb), Finland
Distance from station: LO 42km
Päivitetty: 20/09/2018 22:50
Heikkoa sadetta, Showers, Vaihtelevaa
Heikkoa sadetta, Showers, Vaihtelevaa
 Tuulen suunta ELO
Tuuli: ELO 17 km/h
Lämpötila: 14°C
Kastepiste: 10°C
Kosteus: 77%
Ilmanpaine: 1007 hPa
Yhteenveto: Heikkoa sadetta, Showers
Clouds: Vaihtelevaa
Visibility: 10 km
Cloud details: Vaihtelevaa 2713 m
2018/09/20 19:50 EFUT 201950Z AUTO 21009KT 9999 -SHRA OVC089 14/10 Q1007
 
EFMI - Mikkeli, Finland
Distance from station: P 66km
Päivitetty: 20/09/2018 22:50
Selkeätä
Selkeätä
 Tuulen suunta LO
Tuuli: LO 11 km/h
Lämpötila: 14°C
Kastepiste: 8°C
Kosteus: 67%
Ilmanpaine: 1005 hPa
Yhteenveto: Selkeätä
Visibility: greater than 10 km
2018/09/20 19:50 EFMI 201950Z AUTO 22006KT 150V260 CAVOK 14/08 Q1005
EFVR - Varkaus, Finland
Distance from station: P 117km
Päivitetty: 15/04/2016 08:50
NOT Current
Selkeätä
Selkeätä
 Tuulen suunta PLU
Tuuli: PLU 15 km/h
Lämpötila: -1°C
Wind Chill: -6°C
Kastepiste: -8°C
Kosteus: 59%
Ilmanpaine: 1005 hPa
Yhteenveto: Selkeätä
Visibility: greater than 10 km
2016/04/15 05:50 EFVR 150550Z AUTO 33008KT CAVOK M01/M08 Q1005
 
EFSA - Savonlinna (aut), Finland
Distance from station: KO 119km
Päivitetty: 20/09/2018 22:50
Selkeätä
Selkeätä
 Tuulen suunta LO
Tuuli: LO 13 km/h
Lämpötila: 15°C
Kastepiste: 8°C
Kosteus: 63%
Ilmanpaine: 1004 hPa
Yhteenveto: Selkeätä
Visibility: greater than 10 km
2018/09/20 19:50 EFSA 201950Z AUTO 22007KT 160V280 CAVOK 15/08 Q1004
EFHA - Halli (fin-Afb), Finland
Distance from station: LLU 164km
Päivitetty: 20/09/2018 22:50
Selkeätä
Selkeätä
 Tuulen suunta ELO
Tuuli: ELO 20 km/h
Lämpötila: 13°C
Kastepiste: 7°C
Kosteus: 67%
Ilmanpaine: 1003 hPa
Yhteenveto: Selkeätä
Visibility: greater than 10 km
2018/09/20 19:50 EFHA 201950Z AUTO 21011KT CAVOK 13/07 Q1003
 
EFHK - Helsinki/Vantaa, Finland
Distance from station: LLO 165km
Päivitetty: 20/09/2018 22:50
Rain showers, Puolipilvistä
Rain showers, Puolipilvistä
 Tuulen suunta ELO
Tuuli: ELO 15 km/h
Lämpötila: 15°C
Kastepiste: 14°C
Kosteus: 94%
Ilmanpaine: 1007 hPa
Yhteenveto: Rain Showers
Clouds: Puolipilvistä
Visibility: 8 km
Cloud details: Puolipilvistä 274 m
Enimmäkseen pilvistä 335 m
Puolipilvistä 762 m
2018/09/20 19:50 EFHK 201950Z 21008KT 8000 SHRA SCT009 BKN011 SCT025CB 15/14 Q1007 TEMPO -SHRA BKN009
EFHF - Helsinki/Malmi, Finland
Distance from station: LO 165km
Päivitetty: 06/03/2017 17:50
NOT Current
Selkeätä
Selkeätä
 Tuulen suunta KO
Tuuli: KO 11 km/h
Lämpötila: -2°C
Wind Chill: -6°C
Kastepiste: -11°C
Kosteus: 51%
Ilmanpaine: 1021 hPa
Yhteenveto: Selkeätä
Visibility: greater than 10 km
2017/03/06 15:50 EFHF 061550Z 04006KT 330V100 CAVOK M02/M11 Q1021
 
EFJY - Jyvaskyla (mil/C, Finland
Distance from station: LU 170km
Päivitetty: 20/09/2018 22:50
Puolipilvistä
Puolipilvistä
 Tuulen suunta ELO
Tuuli: ELO 7 km/h
Lämpötila: 13°C
Kastepiste: 6°C
Kosteus: 63%
Ilmanpaine: 1002 hPa
Clouds: Puolipilvistä
Visibility: 10 km
Cloud details: Few Clouds 1372 m
Puolipilvistä 3139 m
2018/09/20 19:50 EFJY 201950Z AUTO 21004KT 140V310 9999 FEW045 SCT103 13/06 Q1002